sensor_id;sensor_type;location;lat;lon;timestamp;temperature;humidity
22562;DHT22;11447;50.562;8.504;2023-03-01T04:17:06;-3275.80;72.40
22562;DHT22;11447;50.562;8.504;2023-03-01T04:19:35;-3276.20;70.90
22562;DHT22;11447;50.562;8.504;2023-03-01T04:22:04;-3276.30;71.00
22562;DHT22;11447;50.562;8.504;2023-03-01T04:24:35;-3276.20;70.70
22562;DHT22;11447;50.562;8.504;2023-03-01T04:27:02;-3276.00;70.90
22562;DHT22;11447;50.562;8.504;2023-03-01T04:29:29;-3276.00;71.60
22562;DHT22;11447;50.562;8.504;2023-03-01T04:31:55;-3276.10;71.70
22562;DHT22;11447;50.562;8.504;2023-03-01T04:34:24;-3276.10;71.00
22562;DHT22;11447;50.562;8.504;2023-03-01T04:36:55;-3276.00;71.80
22562;DHT22;11447;50.562;8.504;2023-03-01T04:39:22;-3276.00;71.50
22562;DHT22;11447;50.562;8.504;2023-03-01T04:41:48;-3276.20;70.70
22562;DHT22;11447;50.562;8.504;2023-03-01T04:44:15;-3276.20;71.60
22562;DHT22;11447;50.562;8.504;2023-03-01T04:46:42;-3276.00;71.80
22562;DHT22;11447;50.562;8.504;2023-03-01T04:49:08;-3275.80;72.10
22562;DHT22;11447;50.562;8.504;2023-03-01T04:51:37;-3275.90;72.40
22562;DHT22;11447;50.562;8.504;2023-03-01T04:54:06;-3275.80;72.50
22562;DHT22;11447;50.562;8.504;2023-03-01T04:56:35;-3275.70;72.60
22562;DHT22;11447;50.562;8.504;2023-03-01T04:59:01;-3275.80;72.60
22562;DHT22;11447;50.562;8.504;2023-03-01T05:01:32;-3275.80;72.60
22562;DHT22;11447;50.562;8.504;2023-03-01T05:03:58;-3275.80;72.60
22562;DHT22;11447;50.562;8.504;2023-03-01T05:06:29;-3276.10;72.00
22562;DHT22;11447;50.562;8.504;2023-03-01T05:08:56;-3276.00;72.20
22562;DHT22;11447;50.562;8.504;2023-03-01T05:11:23;-3276.10;71.90
22562;DHT22;11447;50.562;8.504;2023-03-01T05:13:49;-3276.20;71.40
22562;DHT22;11447;50.562;8.504;2023-03-01T05:16:21;-3276.20;70.90
22562;DHT22;11447;50.562;8.504;2023-03-01T05:18:48;-3276.00;71.10
22562;DHT22;11447;50.562;8.504;2023-03-01T05:21:19;-3276.10;71.40
22562;DHT22;11447;50.562;8.504;2023-03-01T05:23:45;-3275.90;72.00
22562;DHT22;11447;50.562;8.504;2023-03-01T05:26:13;-3275.90;72.00
22562;DHT22;11447;50.562;8.504;2023-03-01T05:28:55;-3275.90;71.40
22562;DHT22;11447;50.562;8.504;2023-03-01T05:31:26;-3276.30;71.10
22562;DHT22;11447;50.562;8.504;2023-03-01T05:33:53;-3276.00;71.00
22562;DHT22;11447;50.562;8.504;2023-03-01T05:36:22;-3276.20;70.90
22562;DHT22;11447;50.562;8.504;2023-03-01T05:38:51;-3276.10;71.70
22562;DHT22;11447;50.562;8.504;2023-03-01T05:41:18;-3275.80;72.30
22562;DHT22;11447;50.562;8.504;2023-03-01T05:43:46;-3275.80;72.40
22562;DHT22;11447;50.562;8.504;2023-03-01T05:46:13;-3276.00;72.60
22562;DHT22;11447;50.562;8.504;2023-03-01T05:48:41;-3275.90;73.00
22562;DHT22;11447;50.562;8.504;2023-03-01T05:51:08;-3275.70;73.00
22562;DHT22;11447;50.562;8.504;2023-03-01T05:53:34;-3275.70;72.70
22562;DHT22;11447;50.562;8.504;2023-03-01T05:56:04;-3275.90;72.90
22562;DHT22;11447;50.562;8.504;2023-03-01T05:58:31;-3275.60;72.90
22562;DHT22;11447;50.562;8.504;2023-03-01T06:01:00;-3275.80;72.30
22562;DHT22;11447;50.562;8.504;2023-03-01T06:03:27;-3275.80;72.50
22562;DHT22;11447;50.562;8.504;2023-03-01T06:05:56;-3275.70;72.30
22562;DHT22;11447;50.562;8.504;2023-03-01T06:08:26;-3275.70;72.40
22562;DHT22;11447;50.562;8.504;2023-03-01T06:10:53;-3275.80;72.70
22562;DHT22;11447;50.562;8.504;2023-03-01T06:13:20;-3275.80;72.50
22562;DHT22;11447;50.562;8.504;2023-03-01T06:15:47;-3275.90;72.50
22562;DHT22;11447;50.562;8.504;2023-03-01T06:18:13;-3276.00;71.80
22562;DHT22;11447;50.562;8.504;2023-03-01T06:20:40;-3276.20;71.70
22562;DHT22;11447;50.562;8.504;2023-03-01T06:23:07;-3275.90;72.00
22562;DHT22;11447;50.562;8.504;2023-03-01T06:25:36;-3275.90;72.40
22562;DHT22;11447;50.562;8.504;2023-03-01T06:28:05;-3276.00;72.20
22562;DHT22;11447;50.562;8.504;2023-03-01T06:30:32;-3275.90;72.20
22562;DHT22;11447;50.562;8.504;2023-03-01T06:32:59;-3275.90;72.40
22562;DHT22;11447;50.562;8.504;2023-03-01T06:35:29;-3276.00;72.60
22562;DHT22;11447;50.562;8.504;2023-03-01T06:37:58;-3275.90;72.80
22562;DHT22;11447;50.562;8.504;2023-03-01T06:40:25;-3275.80;72.50
22562;DHT22;11447;50.562;8.504;2023-03-01T06:42:51;-3276.10;72.40
22562;DHT22;11447;50.562;8.504;2023-03-01T06:45:19;-3276.00;72.10
22562;DHT22;11447;50.562;8.504;2023-03-01T06:47:46;-3276.20;71.70
22562;DHT22;11447;50.562;8.504;2023-03-01T06:50:14;-3276.20;71.00
22562;DHT22;11447;50.562;8.504;2023-03-01T06:52:40;-3275.90;71.30
22562;DHT22;11447;50.562;8.504;2023-03-01T06:55:11;-3276.20;71.70
22562;DHT22;11447;50.562;8.504;2023-03-01T06:57:40;-3276.10;71.20
22562;DHT22;11447;50.562;8.504;2023-03-01T07:00:09;-3276.30;71.70
22562;DHT22;11447;50.562;8.504;2023-03-01T07:02:36;-3276.10;71.30
22562;DHT22;11447;50.562;8.504;2023-03-01T07:05:06;-3276.20;71.00
22562;DHT22;11447;50.562;8.504;2023-03-01T07:07:33;-3276.30;70.60
22562;DHT22;11447;50.562;8.504;2023-03-01T07:09:59;-3276.40;70.90
22562;DHT22;11447;50.562;8.504;2023-03-01T07:12:26;-3276.40;70.60
22562;DHT22;11447;50.562;8.504;2023-03-01T07:14:55;-3276.20;70.70
22562;DHT22;11447;50.562;8.504;2023-03-01T07:17:24;-3276.20;71.10
22562;DHT22;11447;50.562;8.504;2023-03-01T07:19:51;-3276.40;70.40
22562;DHT22;11447;50.562;8.504;2023-03-01T07:22:22;-3276.50;70.20
22562;DHT22;11447;50.562;8.504;2023-03-01T07:24:51;-3276.60;70.00
22562;DHT22;11447;50.562;8.504;2023-03-01T07:27:17;-3276.70;69.70
22562;DHT22;11447;50.562;8.504;2023-03-01T07:29:44;-3276.60;69.80
22562;DHT22;11447;50.562;8.504;2023-03-01T07:32:11;-3276.60;69.50
22562;DHT22;11447;50.562;8.504;2023-03-01T07:34:40;-3276.60;69.70
22562;DHT22;11447;50.562;8.504;2023-03-01T07:37:07;-3276.60;69.60
22562;DHT22;11447;50.562;8.504;2023-03-01T07:39:33;-3276.60;69.50
22562;DHT22;11447;50.562;8.504;2023-03-01T07:42:02;-3276.60;69.40
22562;DHT22;11447;50.562;8.504;2023-03-01T07:44:29;-3276.70;69.30
22562;DHT22;11447;50.562;8.504;2023-03-01T07:46:58;0.00;68.90
22562;DHT22;11447;50.562;8.504;2023-03-01T07:49:27;0.00;69.10
22562;DHT22;11447;50.562;8.504;2023-03-01T07:51:54;0.10;68.50
22562;DHT22;11447;50.562;8.504;2023-03-01T07:54:22;0.00;68.20
22562;DHT22;11447;50.562;8.504;2023-03-01T07:56:49;0.30;68.00
22562;DHT22;11447;50.562;8.504;2023-03-01T07:59:16;0.30;67.50
22562;DHT22;11447;50.562;8.504;2023-03-01T08:01:42;0.20;67.70
22562;DHT22;11447;50.562;8.504;2023-03-01T08:04:09;0.40;67.50
22562;DHT22;11447;50.562;8.504;2023-03-01T08:06:36;0.40;67.10
22562;DHT22;11447;50.562;8.504;2023-03-01T08:09:05;0.40;67.00
22562;DHT22;11447;50.562;8.504;2023-03-01T08:11:32;0.50;67.30
22562;DHT22;11447;50.562;8.504;2023-03-01T08:13:58;0.70;67.20
22562;DHT22;11447;50.562;8.504;2023-03-01T08:16:25;0.60;66.40
22562;DHT22;11447;50.562;8.504;2023-03-01T08:18:52;0.60;66.60
22562;DHT22;11447;50.562;8.504;2023-03-01T08:21:19;0.80;66.60
22562;DHT22;11447;50.562;8.504;2023-03-01T08:23:45;0.90;66.10
22562;DHT22;11447;50.562;8.504;2023-03-01T08:26:13;0.80;65.40
22562;DHT22;11447;50.562;8.504;2023-03-01T08:28:40;0.90;65.30
22562;DHT22;11447;50.562;8.504;2023-03-01T08:33:45;0.80;64.90
22562;DHT22;11447;50.562;8.504;2023-03-01T08:36:19;1.10;65.20
22562;DHT22;11447;50.562;8.504;2023-03-01T08:38:47;1.00;65.30
22562;DHT22;11447;50.562;8.504;2023-03-01T08:41:14;1.30;64.20
